createdAt,value
2022-11-21T00:01:38.490Z,99837.25
2022-11-21T00:03:41.299Z,99840.56
2022-11-21T00:05:47.017Z,99843.25
2022-11-21T00:07:50.047Z,99845.47
2022-11-21T00:09:52.652Z,99848.16
2022-11-21T00:11:55.228Z,99842.59
2022-11-21T00:13:58.151Z,99838.25
2022-11-21T00:16:08.663Z,99840.50
2022-11-21T00:18:13.097Z,99834.13
2022-11-21T00:20:16.822Z,99843.41
2022-11-21T00:22:19.546Z,99836.81
2022-11-21T00:24:22.102Z,99832.06
2022-11-21T00:26:24.746Z,99844.44
2022-11-21T00:28:27.424Z,99841.75
2022-11-21T00:30:30.417Z,99839.69
2022-11-21T00:32:33.245Z,99818.69
2022-11-21T00:34:35.997Z,99833.69
2022-11-21T00:36:38.620Z,99826.91
2022-11-21T00:38:41.192Z,99839.50
2022-11-21T00:40:45.134Z,99830.19
2022-11-21T00:42:47.738Z,99833.31
2022-11-21T00:44:50.345Z,99824.22
2022-11-21T00:46:52.948Z,99821.16
2022-11-21T00:48:55.552Z,99826.72
2022-11-21T00:50:58.360Z,99814.97
2022-11-21T00:53:01.096Z,99819.06
2022-11-21T00:55:03.777Z,99824.44
2022-11-21T00:57:06.484Z,99828.75
2022-11-21T00:59:09.159Z,99819.69
2022-11-21T01:01:14.464Z,99823.41
2022-11-21T01:03:17.710Z,99828.34
2022-11-21T01:05:20.346Z,99826.53
2022-11-21T01:07:23.013Z,99835.56
2022-11-21T01:09:25.823Z,99828.16
2022-11-21T01:11:29.332Z,99819.31
2022-11-21T01:13:32.490Z,99826.72
2022-11-21T01:15:35.160Z,99823.41
2022-11-21T01:17:37.820Z,99822.78
2022-11-21T01:19:40.506Z,99831.00
2022-11-21T01:21:43.129Z,99820.91
2022-11-21T01:23:46.126Z,99818.66
2022-11-21T01:25:48.770Z,99818.84
2022-11-21T01:27:51.471Z,99822.34
2022-11-21T01:29:53.997Z,99826.47
2022-11-21T01:31:56.700Z,99825.00
2022-11-21T01:34:00.643Z,99836.34
2022-11-21T01:36:23.113Z,99824.38
2022-11-21T01:38:25.786Z,99827.66
2022-11-21T01:40:28.554Z,99830.72
2022-11-21T01:42:47.114Z,99829.50
2022-11-21T01:44:53.644Z,99831.34
2022-11-21T01:46:56.355Z,99829.50
2022-11-21T01:49:08.247Z,99828.25
2022-11-21T01:51:14.220Z,99834.81
2022-11-21T01:53:17.282Z,99833.78
2022-11-21T01:55:20.044Z,99835.44
2022-11-21T01:57:28.702Z,99831.56
2022-11-21T01:59:37.497Z,99838.53
2022-11-21T02:01:40.263Z,99834.81
2022-11-21T02:03:45.779Z,99839.16
2022-11-21T02:05:48.926Z,99840.16
2022-11-21T02:07:55.921Z,99844.50
2022-11-21T02:10:01.902Z,99839.78
2022-11-21T02:12:25.326Z,99847.63
2022-11-21T02:14:48.518Z,99838.75
2022-11-21T02:16:51.436Z,99838.97
2022-11-21T02:18:54.355Z,99838.13
2022-11-21T02:21:05.908Z,99838.13
2022-11-21T02:23:20.073Z,99840.59
2022-11-21T02:25:26.340Z,99840.63
2022-11-21T02:27:29.533Z,99843.09
2022-11-21T02:29:32.942Z,99839.44
2022-11-21T02:31:35.469Z,99842.94
2022-11-21T02:33:38.071Z,99819.91
2022-11-21T02:35:40.718Z,99836.94
2022-11-21T02:37:46.051Z,99831.97
2022-11-21T02:39:49.944Z,99839.38
2022-11-21T02:42:05.351Z,99835.50
2022-11-21T02:44:24.838Z,99830.13
2022-11-21T02:46:28.724Z,99825.81
2022-11-21T02:48:31.497Z,99809.09
2022-11-21T02:50:38.943Z,99805.44
2022-11-21T02:52:41.841Z,99804.34
2022-11-21T02:54:44.489Z,99809.53
2022-11-21T02:56:47.146Z,99802.56
2022-11-21T02:58:49.858Z,99800.06
2022-11-21T03:00:52.537Z,99798.22
2022-11-21T03:02:56.271Z,99798.66
2022-11-21T03:04:59.032Z,99802.13
2022-11-21T03:07:01.783Z,99804.81
2022-11-21T03:09:04.493Z,99804.00
2022-11-21T03:11:07.106Z,99812.47
2022-11-21T03:13:09.702Z,99817.00
2022-11-21T03:15:15.328Z,99824.66
2022-11-21T03:17:18.493Z,99827.94
2022-11-21T03:19:21.160Z,99822.16
2022-11-21T03:21:23.883Z,99821.94
2022-11-21T03:23:26.533Z,99827.25
2022-11-21T03:25:31.548Z,99825.41
2022-11-21T03:27:34.192Z,99824.38
2022-11-21T03:29:36.821Z,99827.66
2022-11-21T03:31:39.472Z,99826.84
2022-11-21T03:33:42.064Z,99825.34
2022-11-21T03:35:44.672Z,99831.34
2022-11-21T03:37:49.262Z,99824.94
2022-11-21T03:39:51.863Z,99825.97
2022-11-21T03:41:54.539Z,99807.66
2022-11-21T03:44:08.942Z,99819.19
2022-11-21T03:46:11.496Z,99811.38
2022-11-21T03:48:15.596Z,99818.56
2022-11-21T03:50:21.082Z,99819.19
2022-11-21T03:52:23.756Z,99816.13
2022-11-21T03:54:26.509Z,99816.13
2022-11-21T03:56:29.980Z,99814.88
2022-11-21T03:58:32.684Z,99810.94
2022-11-21T04:00:35.345Z,99800.25
2022-11-21T04:02:38.330Z,99801.06
2022-11-21T04:04:41.023Z,99797.56
2022-11-21T04:06:43.741Z,99800.25
2022-11-21T04:08:46.375Z,99789.53
2022-11-21T04:10:52.796Z,99786.03
2022-11-21T04:12:55.370Z,99793.25
2022-11-21T04:14:57.997Z,99790.78
2022-11-21T04:17:00.572Z,99791.81
2022-11-21T04:19:03.214Z,99801.09
2022-11-21T04:21:07.984Z,99797.41
2022-11-21T04:23:10.882Z,99792.66
2022-11-21T04:25:14.138Z,99785.84
2022-11-21T04:27:16.804Z,99778.66
2022-11-21T04:29:19.559Z,99785.44
2022-11-21T04:31:22.264Z,99772.88
2022-11-21T04:33:24.894Z,99778.63
2022-11-21T04:35:28.006Z,99771.41
2022-11-21T04:37:30.662Z,99775.13
2022-11-21T04:39:33.383Z,99773.25
2022-11-21T04:41:37.070Z,99778.81
2022-11-21T04:43:39.751Z,99783.13
2022-11-21T04:45:44.672Z,99779.84
2022-11-21T04:47:47.895Z,99780.06
2022-11-21T04:49:50.580Z,99786.22
2022-11-21T04:51:53.190Z,99778.19
2022-11-21T04:53:55.866Z,99777.38
2022-11-21T04:55:58.653Z,99785.41
2022-11-21T04:58:01.488Z,99784.84
2022-11-21T05:00:04.952Z,99780.69
2022-11-21T05:02:07.519Z,99774.53
2022-11-21T05:04:10.042Z,99777.19
2022-11-21T05:06:12.737Z,99771.38
2022-11-21T05:08:15.368Z,99777.94
2022-11-21T05:10:18.089Z,99774.00
2022-11-21T05:12:39.338Z,99778.31
2022-11-21T05:14:42.097Z,99777.69
2022-11-21T05:16:44.764Z,99771.91
2022-11-21T05:18:47.388Z,99773.88
2022-11-21T05:20:50.069Z,99778.22
2022-11-21T05:22:52.759Z,99774.91
2022-11-21T05:24:55.384Z,99767.91
2022-11-21T05:26:58.044Z,99766.06
2022-11-21T05:29:00.721Z,99771.97
2022-11-21T05:31:03.343Z,99775.00
2022-11-21T05:33:06.230Z,99771.44
2022-11-21T05:35:09.188Z,99766.91
2022-11-21T05:37:11.714Z,99765.81
2022-11-21T05:39:16.083Z,99769.69
2022-11-21T05:41:18.720Z,99775.88
2022-11-21T05:43:39.920Z,99763.34
2022-11-21T05:45:42.638Z,99769.00
2022-11-21T05:47:45.188Z,99777.41
2022-11-21T05:49:47.829Z,99765.63
2022-11-21T05:51:50.756Z,99768.09
2022-11-21T05:53:53.348Z,99766.47
2022-11-21T05:55:56.075Z,99766.88
2022-11-21T05:58:00.109Z,99761.50
2022-11-21T06:00:02.990Z,99765.09
2022-11-21T06:02:25.606Z,99765.91
2022-11-21T06:04:28.325Z,99764.81
2022-11-21T06:06:31.064Z,99765.78
2022-11-21T06:08:42.279Z,99762.13
2022-11-21T06:10:45.057Z,99760.09
2022-11-21T06:12:47.693Z,99774.31
2022-11-21T06:14:50.369Z,99760.50
2022-11-21T06:16:53.146Z,99758.88
2022-11-21T06:18:58.613Z,99754.56
2022-11-21T06:21:09.618Z,99760.69
2022-11-21T06:23:13.218Z,99763.22
2022-11-21T06:25:15.948Z,99775.75
2022-11-21T06:27:18.579Z,99767.28
2022-11-21T06:29:22.430Z,99781.88
2022-11-21T06:31:27.146Z,99770.72
2022-11-21T06:33:29.812Z,99764.97
2022-11-21T06:35:32.859Z,99776.44
2022-11-21T06:37:35.565Z,99777.66
2022-11-21T06:39:38.323Z,99780.28
2022-11-21T06:41:40.947Z,99771.78
2022-11-21T06:43:44.509Z,99776.88
2022-11-21T06:45:47.071Z,99785.69
2022-11-21T06:47:49.774Z,99782.69
2022-11-21T06:49:52.521Z,99781.13
2022-11-21T06:51:55.444Z,99784.56
2022-11-21T06:53:59.375Z,99787.00
2022-11-21T06:56:03.213Z,99778.53
2022-11-21T06:58:05.797Z,99790.97
2022-11-21T07:00:09.064Z,99794.78
2022-11-21T07:02:14.800Z,99792.25
2022-11-21T07:04:17.491Z,99784.56
2022-11-21T07:06:20.165Z,99789.69
2022-11-21T07:08:22.803Z,99786.25
2022-11-21T07:10:25.498Z,99781.13
2022-11-21T07:12:46.857Z,99773.88
2022-11-21T07:14:49.506Z,99774.41
2022-11-21T07:16:52.212Z,99768.44
2022-11-21T07:18:54.864Z,99763.41
2022-11-21T07:21:01.837Z,99764.47
2022-11-21T07:23:04.879Z,99769.25
2022-11-21T07:25:07.739Z,99761.31
2022-11-21T07:27:10.801Z,99758.81
2022-11-21T07:29:13.748Z,99755.84
2022-11-21T07:31:16.291Z,99760.00
2022-11-21T07:33:18.888Z,99758.59
2022-11-21T07:35:21.516Z,99758.81
2022-11-21T07:37:24.189Z,99766.88
2022-11-21T07:39:27.110Z,99770.84
2022-11-21T07:41:29.993Z,99777.44
2022-11-21T07:43:32.604Z,99774.28
2022-11-21T07:45:35.335Z,99770.22
2022-11-21T07:47:38.059Z,99769.88
2022-11-21T07:49:40.704Z,99762.50
2022-11-21T07:51:43.411Z,99775.97
2022-11-21T07:53:46.131Z,99777.13
2022-11-21T07:55:48.783Z,99776.47
2022-11-21T07:58:05.691Z,99780.56
2022-11-21T08:00:09.432Z,99778.97
2022-11-21T08:02:26.433Z,99791.50
2022-11-21T08:04:29.171Z,99791.13
2022-11-21T08:06:31.935Z,99789.16
2022-11-21T08:08:34.609Z,99794.94
2022-11-21T08:10:39.883Z,99792.84
2022-11-21T08:12:43.433Z,99788.41
2022-11-21T08:14:46.682Z,99795.66
2022-11-21T08:16:53.113Z,99806.47
2022-11-21T08:18:56.098Z,99801.78
2022-11-21T08:21:02.857Z,99795.31
2022-11-21T08:23:07.003Z,99802.13
2022-11-21T08:25:11.055Z,99793.81
2022-11-21T08:27:14.817Z,99797.91
2022-11-21T08:29:17.872Z,99795.22
2022-11-21T08:31:20.977Z,99794.16
2022-11-21T08:33:24.423Z,99796.84
2022-11-21T08:35:28.640Z,99789.81
2022-11-21T08:37:31.863Z,99793.59
2022-11-21T08:39:35.410Z,99780.56
2022-11-21T08:41:57.693Z,99774.25
2022-11-21T08:44:00.744Z,99773.47
2022-11-21T08:46:04.046Z,99765.97
2022-11-21T08:48:12.604Z,99772.97
2022-11-21T08:50:15.851Z,99777.56
2022-11-21T08:52:18.867Z,99774.03
2022-11-21T08:54:24.896Z,99776.75
2022-11-21T08:56:28.779Z,99774.97
2022-11-21T08:58:31.891Z,99775.88
2022-11-21T09:00:34.896Z,99767.94
2022-11-21T09:02:37.824Z,99768.66
2022-11-21T09:04:40.815Z,99767.56
2022-11-21T09:06:43.981Z,99762.53
2022-11-21T09:08:47.094Z,99764.28
2022-11-21T09:10:50.065Z,99762.19
2022-11-21T09:12:53.014Z,99764.66
2022-11-21T09:15:14.591Z,99770.97
2022-11-21T09:17:35.904Z,99764.16
2022-11-21T09:19:38.568Z,99763.09
2022-11-21T09:21:41.115Z,99762.78
2022-11-21T09:23:44.493Z,99768.50
2022-11-21T09:25:47.951Z,99763.09
2022-11-21T09:27:50.708Z,99761.00
2022-11-21T09:29:54.324Z,99762.28
2022-11-21T09:31:57.196Z,99747.41
2022-11-21T09:33:59.896Z,99753.97
2022-11-21T09:36:02.564Z,99744.81
2022-11-21T09:38:06.159Z,99748.09
2022-11-21T09:40:17.012Z,99752.47
2022-11-21T09:42:58.216Z,99750.31
2022-11-21T09:45:07.188Z,99749.75
2022-11-21T09:47:21.656Z,99739.53
2022-11-21T09:49:25.824Z,99745.31
2022-11-21T09:51:31.672Z,99747.41
2022-11-21T09:53:45.897Z,99740.16
2022-11-21T09:55:52.669Z,99739.84
2022-11-21T09:57:55.577Z,99737.63
2022-11-21T09:59:58.333Z,99737.13
2022-11-21T10:02:01.643Z,99727.75
2022-11-21T10:04:04.895Z,99737.25
2022-11-21T10:06:10.129Z,99736.66
2022-11-21T10:08:55.567Z,99728.34
2022-11-21T10:11:24.233Z,99736.66
2022-11-21T10:13:33.271Z,99739.94
2022-11-21T10:15:54.237Z,99741.13
2022-11-21T10:18:04.361Z,99746.41
2022-11-21T10:20:25.693Z,99734.34
2022-11-21T10:22:28.243Z,99746.03
2022-11-21T10:24:55.189Z,99742.41
2022-11-21T10:27:39.994Z,99743.81
2022-11-21T10:29:53.493Z,99741.94
2022-11-21T10:32:02.570Z,99742.03
2022-11-21T10:34:13.839Z,99739.22
2022-11-21T10:36:35.083Z,99744.13
2022-11-21T10:38:41.208Z,99741.53
2022-11-21T10:40:52.002Z,99741.09
2022-11-21T10:43:50.482Z,99737.22
2022-11-21T10:45:54.592Z,99731.72
2022-11-21T10:47:57.393Z,99737.72
2022-11-21T10:50:15.046Z,99734.03
2022-11-21T10:52:23.948Z,99733.59
2022-11-21T10:54:35.572Z,99726.53
2022-11-21T10:56:39.013Z,99723.63
2022-11-21T10:58:43.784Z,99719.03
2022-11-21T11:00:58.661Z,99728.44
2022-11-21T11:03:16.610Z,99718.34
2022-11-21T11:05:21.647Z,99715.56
2022-11-21T11:07:29.095Z,99714.50
2022-11-21T11:09:35.567Z,99721.78
2022-11-21T11:11:38.449Z,99715.31
2022-11-21T11:14:01.001Z,99713.38
2022-11-21T11:16:13.611Z,99711.72
2022-11-21T11:18:16.192Z,99710.81
2022-11-21T11:20:38.266Z,99703.75
2022-11-21T11:22:40.891Z,99699.88
2022-11-21T11:24:57.457Z,99708.22
2022-11-21T11:27:03.855Z,99712.31
2022-11-21T11:29:26.113Z,99718.50
2022-11-21T11:31:40.937Z,99714.31
2022-11-21T11:33:49.806Z,99707.53
2022-11-21T11:35:52.461Z,99704.94
2022-11-21T11:38:03.647Z,99710.66
2022-11-21T11:40:09.028Z,99712.31
2022-11-21T11:42:51.237Z,99723.69
2022-11-21T11:45:35.253Z,99712.31
2022-11-21T11:47:55.121Z,99724.88
2022-11-21T11:50:11.512Z,99728.59
2022-11-21T11:52:15.421Z,99734.22
2022-11-21T11:54:23.155Z,99731.19
2022-11-21T11:56:25.679Z,99726.81
2022-11-21T11:58:45.149Z,99734.22
2022-11-21T12:01:00.507Z,99728.13
2022-11-21T12:03:35.685Z,99734.19
2022-11-21T12:05:47.029Z,99740.16
2022-11-21T12:11:15.990Z,99741.81
2022-11-21T12:13:20.108Z,99748.25
2022-11-21T12:15:47.030Z,99739.94
2022-11-21T12:18:20.464Z,99737.13
2022-11-21T12:20:40.221Z,99743.81
2022-11-21T12:22:44.343Z,99738.31
2022-11-21T12:24:48.101Z,99750.31
2022-11-21T12:27:01.382Z,99753.03
2022-11-21T12:29:41.580Z,99750.00
2022-11-21T12:32:19.580Z,99742.59
2022-11-21T12:34:27.880Z,99750.22
2022-11-21T12:36:44.005Z,99751.50
2022-11-21T12:39:34.381Z,99748.81
2022-11-21T12:42:12.136Z,99766.34
2022-11-21T12:44:33.484Z,99759.69
2022-11-21T12:46:47.107Z,99760.63
2022-11-21T12:49:24.191Z,99757.94
2022-11-21T12:52:19.166Z,99751.28
2022-11-21T12:54:30.743Z,99743.78
2022-11-21T12:56:49.595Z,99730.19
2022-11-21T12:58:55.164Z,99739.19
2022-11-21T13:01:06.592Z,99746.00
2022-11-21T13:03:42.600Z,99748.47
2022-11-21T13:05:48.735Z,99743.53
2022-11-21T13:07:59.273Z,99752.66
2022-11-21T13:10:04.479Z,99742.91
2022-11-21T13:12:18.153Z,99746.09
2022-11-21T13:14:53.419Z,99752.66
2022-11-21T13:17:13.920Z,99750.44
2022-11-21T13:19:25.084Z,99744.91
2022-11-21T13:21:50.882Z,99740.78
2022-11-21T13:23:56.752Z,99735.41
2022-11-21T13:26:00.126Z,99739.50
2022-11-21T13:28:17.747Z,99741.41
2022-11-21T13:30:23.119Z,99749.13
2022-11-21T13:32:44.915Z,99739.50
2022-11-21T13:34:47.828Z,99743.06
2022-11-21T13:36:50.495Z,99739.97
2022-11-21T13:38:53.056Z,99732.97
2022-11-21T13:41:14.427Z,99734.25
2022-11-21T13:43:32.776Z,99736.69
2022-11-21T13:45:43.400Z,99738.69
2022-11-21T13:48:15.473Z,99738.47
2022-11-21T13:50:31.771Z,99742.00
2022-11-21T13:52:42.587Z,99739.06
2022-11-21T13:55:19.368Z,99732.03
2022-11-21T13:57:33.081Z,99732.03
2022-11-21T13:59:58.663Z,99728.06
2022-11-21T14:02:19.408Z,99734.72
2022-11-21T14:04:31.332Z,99720.94
2022-11-21T14:06:43.683Z,99718.25
2022-11-21T14:09:04.713Z,99707.38
2022-11-21T14:11:36.464Z,99724.91
2022-11-21T14:13:47.050Z,99723.25
2022-11-21T14:16:42.258Z,99721.38
2022-11-21T14:18:47.280Z,99716.69
2022-11-21T14:20:52.179Z,99714.84
2022-11-21T14:22:58.489Z,99700.53
2022-11-21T14:25:06.429Z,99704.78
2022-11-21T14:27:26.508Z,99690.72
2022-11-21T14:29:40.946Z,99694.91
2022-11-21T14:31:48.066Z,99687.78
2022-11-21T14:33:58.469Z,99688.81
2022-11-21T14:36:30.611Z,99672.66
2022-11-21T14:38:51.006Z,99679.13
2022-11-21T14:41:25.734Z,99687.03
2022-11-21T14:43:31.938Z,99685.19
2022-11-21T14:45:34.611Z,99680.63
2022-11-21T14:47:47.131Z,99678.97
2022-11-21T14:49:51.828Z,99684.22
2022-11-21T14:52:18.098Z,99682.94
2022-11-21T14:54:23.884Z,99685.28
2022-11-21T14:56:29.383Z,99691.84
2022-11-21T14:58:32.037Z,99677.69
2022-11-21T15:02:59.320Z,99679.22
2022-11-21T15:05:05.420Z,99670.34
2022-11-21T15:07:31.355Z,99667.41
2022-11-21T15:12:05.705Z,99673.59
2022-11-21T15:14:17.622Z,99668.09
2022-11-21T15:16:22.327Z,99665.41
2022-11-21T15:18:28.657Z,99674.06
2022-11-21T15:20:31.916Z,99670.56
2022-11-21T15:22:37.539Z,99670.56
2022-11-21T15:24:43.184Z,99668.22
2022-11-21T15:26:47.361Z,99675.47
2022-11-21T15:28:58.118Z,99668.91
2022-11-21T15:31:20.437Z,99677.44
2022-11-21T15:33:22.899Z,99675.00
2022-11-21T15:35:42.563Z,99671.22
2022-11-21T15:37:51.173Z,99686.28
2022-11-21T15:39:55.212Z,99681.16
2022-11-21T15:42:32.876Z,99674.72
2022-11-21T15:44:35.521Z,99680.34
2022-11-21T15:46:42.227Z,99683.25
2022-11-21T15:48:50.642Z,99681.50
2022-11-21T15:50:57.667Z,99691.44
2022-11-21T15:53:01.661Z,99683.84
2022-11-21T15:55:04.492Z,99681.38
2022-11-21T15:57:08.511Z,99688.84
2022-11-21T15:59:11.164Z,99694.47
2022-11-21T16:01:15.819Z,99691.19
2022-11-21T16:03:18.471Z,99695.34
2022-11-21T16:05:21.058Z,99696.16
2022-11-21T16:07:23.777Z,99690.19
2022-11-21T16:09:26.754Z,99695.34
2022-11-21T16:11:40.674Z,99700.59
2022-11-21T16:13:44.315Z,99703.72
2022-11-21T16:15:47.072Z,99701.03
2022-11-21T16:17:49.668Z,99689.94
2022-11-21T16:19:52.857Z,99701.03
2022-11-21T16:21:55.440Z,99704.56
2022-11-21T16:23:58.055Z,99707.00
2022-11-21T16:26:01.171Z,99704.69
2022-11-21T16:28:07.264Z,99705.97
2022-11-21T16:30:10.439Z,99698.72
2022-11-21T16:32:13.712Z,99701.03
2022-11-21T16:34:20.267Z,99716.13
2022-11-21T16:36:25.589Z,99706.19
2022-11-21T16:38:29.116Z,99699.53
2022-11-21T16:40:31.644Z,99707.59
2022-11-21T16:42:34.265Z,99701.63
2022-11-21T16:44:37.014Z,99702.22
2022-11-21T16:46:44.034Z,99697.31
2022-11-21T16:48:47.333Z,99687.84
2022-11-21T16:50:50.606Z,99686.56
2022-11-21T16:52:54.375Z,99687.03
2022-11-21T16:54:58.206Z,99692.00
2022-11-21T16:57:01.056Z,99688.88
2022-11-21T16:59:03.692Z,99680.25
2022-11-21T17:01:16.981Z,99687.25
2022-11-21T17:03:19.749Z,99686.44
2022-11-21T17:05:22.394Z,99677.78
2022-11-21T17:07:25.143Z,99691.41
2022-11-21T17:09:27.864Z,99680.66
2022-11-21T17:11:32.217Z,99681.28
2022-11-21T17:13:34.920Z,99685.97
2022-11-21T17:15:37.584Z,99689.03
2022-11-21T17:17:41.084Z,99684.69
2022-11-21T17:19:44.044Z,99693.72
2022-11-21T17:21:46.749Z,99689.16
2022-11-21T17:23:49.780Z,99696.97
2022-11-21T17:25:52.362Z,99686.00
2022-11-21T17:27:55.199Z,99690.31
2022-11-21T17:29:57.748Z,99690.13
2022-11-21T17:32:00.346Z,99678.34
2022-11-21T17:34:03.199Z,99682.44
2022-11-21T17:36:08.100Z,99679.50
2022-11-21T17:38:10.765Z,99684.53
2022-11-21T17:40:13.912Z,99681.03
2022-11-21T17:42:16.906Z,99680.78
2022-11-21T17:44:19.622Z,99686.75
2022-11-21T17:46:22.385Z,99686.53
2022-11-21T17:48:24.989Z,99684.72
2022-11-21T17:50:28.107Z,99681.31
2022-11-21T17:52:31.049Z,99693.72
2022-11-21T17:54:34.002Z,99698.03
2022-11-21T17:56:45.053Z,99684.00
2022-11-21T17:58:50.095Z,99684.38
2022-11-21T18:00:56.822Z,99679.22
2022-11-21T18:02:59.813Z,99684.81
2022-11-21T18:05:02.458Z,99685.88
2022-11-21T18:07:07.053Z,99679.44
2022-11-21T18:09:13.402Z,99676.16
2022-11-21T18:11:19.265Z,99679.09
2022-11-21T18:13:22.050Z,99663.78
2022-11-21T18:15:24.748Z,99666.34
2022-11-21T18:17:27.588Z,99658.50
2022-11-21T18:19:30.160Z,99660.38
2022-11-21T18:21:35.626Z,99663.28
2022-11-21T18:23:38.912Z,99673.00
2022-11-21T18:25:41.569Z,99675.09
2022-11-21T18:27:47.583Z,99669.72
2022-11-21T18:29:54.437Z,99674.03
2022-11-21T18:31:57.026Z,99671.78
2022-11-21T18:34:02.004Z,99675.91
2022-11-21T18:36:06.277Z,99673.44
2022-11-21T18:38:08.864Z,99665.16
2022-11-21T18:40:12.494Z,99667.38
2022-11-21T18:42:15.409Z,99666.56
2022-11-21T18:44:22.263Z,99666.81
2022-11-21T18:46:27.549Z,99663.75
2022-11-21T18:49:00.154Z,99661.13
2022-11-21T18:50:52.985Z,99659.66
2022-11-21T18:52:55.539Z,99665.09
2022-11-21T18:54:58.191Z,99669.88
2022-11-21T18:57:00.793Z,99664.06
2022-11-21T18:59:05.988Z,99664.06
2022-11-21T19:01:13.111Z,99664.19
2022-11-21T19:03:16.279Z,99654.94
2022-11-21T19:05:20.703Z,99671.66
2022-11-21T19:07:23.641Z,99665.22
2022-11-21T19:09:32.425Z,99672.25
2022-11-21T19:11:35.540Z,99668.38
2022-11-21T19:13:38.276Z,99669.56
2022-11-21T19:15:43.032Z,99667.84
2022-11-21T19:17:45.582Z,99667.03
2022-11-21T19:19:48.723Z,99666.34
2022-11-21T19:21:51.485Z,99670.53
2022-11-21T19:23:54.841Z,99672.75
2022-11-21T19:26:06.050Z,99677.09
2022-11-21T19:28:08.769Z,99676.34
2022-11-21T19:30:12.101Z,99679.41
2022-11-21T19:32:14.665Z,99676.28
2022-11-21T19:34:17.346Z,99675.59
2022-11-21T19:36:21.524Z,99675.34
2022-11-21T19:38:24.105Z,99672.91
2022-11-21T19:40:46.688Z,99678.50
2022-11-21T19:42:49.301Z,99691.94
2022-11-21T19:44:51.824Z,99695.22
2022-11-21T19:46:54.361Z,99696.03
2022-11-21T19:48:57.723Z,99705.97
2022-11-21T19:51:02.388Z,99712.97
2022-11-21T19:53:05.024Z,99716.72
2022-11-21T19:55:08.105Z,99714.63
2022-11-21T19:57:13.862Z,99715.22
2022-11-21T19:59:16.941Z,99719.53
2022-11-21T20:01:22.652Z,99711.25
2022-11-21T20:03:25.269Z,99708.56
2022-11-21T20:05:27.891Z,99714.16
2022-11-21T20:07:34.099Z,99701.19
2022-11-21T20:09:37.324Z,99696.50
2022-11-21T20:11:42.379Z,99703.56
2022-11-21T20:13:46.198Z,99705.84
2022-11-21T20:15:49.233Z,99693.22
2022-11-21T20:17:53.642Z,99712.75
2022-11-21T20:19:58.101Z,99714.63
2022-11-21T20:22:00.694Z,99716.25
2022-11-21T20:24:04.846Z,99703.88
2022-11-21T20:26:09.301Z,99708.78
2022-11-21T20:28:12.196Z,99713.69
2022-11-21T20:30:15.217Z,99708.56
2022-11-21T20:32:17.811Z,99708.78
2022-11-21T20:34:20.588Z,99710.41
2022-11-21T20:36:25.044Z,99714.38
2022-11-21T20:38:27.615Z,99716.25
2022-11-21T20:40:30.234Z,99715.22
2022-11-21T20:42:32.860Z,99717.53
2022-11-21T20:46:59.728Z,99723.28
2022-11-21T20:49:02.509Z,99711.69
2022-11-21T20:52:25.573Z,99715.22
2022-11-21T20:55:51.664Z,99713.34
2022-11-21T20:57:54.259Z,99712.28
2022-11-21T20:59:56.872Z,99704.47
2022-11-21T21:01:59.524Z,99702.59
2022-11-21T21:04:02.217Z,99719.16
2022-11-21T21:06:07.667Z,99717.31
2022-11-21T21:08:10.207Z,99726.31
2022-11-21T21:10:12.843Z,99729.00
2022-11-21T21:12:15.498Z,99734.59
2022-11-21T21:14:18.106Z,99723.84
2022-11-21T21:16:23.805Z,99720.94
2022-11-21T21:18:26.428Z,99722.81
2022-11-21T21:20:29.048Z,99718.25
2022-11-21T21:22:31.708Z,99708.31
2022-11-21T21:24:34.426Z,99717.44
2022-11-21T21:26:42.618Z,99721.56
2022-11-21T21:28:45.652Z,99724.69
2022-11-21T21:30:48.207Z,99712.44
2022-11-21T21:32:50.851Z,99709.38
2022-11-21T21:34:53.473Z,99704.59
2022-11-21T21:36:56.281Z,99712.69
2022-11-21T21:39:00.252Z,99725.97
2022-11-21T21:41:07.938Z,99722.22
2022-11-21T21:43:10.573Z,99720.59
2022-11-21T21:45:13.401Z,99716.25
2022-11-21T21:47:17.396Z,99717.66
2022-11-21T21:49:20.131Z,99718.03
2022-11-21T21:51:27.889Z,99730.22
2022-11-21T21:53:31.245Z,99728.81
2022-11-21T21:55:33.803Z,99717.44
2022-11-21T21:57:41.569Z,99713.50
2022-11-21T21:59:46.826Z,99722.44
2022-11-21T22:01:49.654Z,99716.03
2022-11-21T22:04:00.894Z,99725.97
2022-11-21T22:06:05.686Z,99730.88
2022-11-21T22:08:08.280Z,99728.06
2022-11-21T22:10:10.981Z,99724.31
2022-11-21T22:12:13.580Z,99729.47
2022-11-21T22:14:17.092Z,99724.91
2022-11-21T22:16:19.818Z,99725.50
2022-11-21T22:18:22.805Z,99725.72
2022-11-21T22:20:25.346Z,99731.09
2022-11-21T22:22:27.958Z,99730.28
2022-11-21T22:24:30.603Z,99732.38
2022-11-21T22:26:33.287Z,99724.78
2022-11-21T22:28:36.369Z,99720.81
2022-11-21T22:30:38.955Z,99721.28
2022-11-21T22:32:41.563Z,99718.34
2022-11-21T22:34:45.194Z,99719.63
2022-11-21T22:36:47.894Z,99708.28
2022-11-21T22:38:54.345Z,99718.59
2022-11-21T22:41:05.256Z,99716.13
2022-11-21T22:43:09.731Z,99717.59
2022-11-21T22:45:12.257Z,99720.75
2022-11-21T22:47:14.953Z,99717.25
2022-11-21T22:49:17.556Z,99718.06
2022-11-21T22:51:25.680Z,99716.06
2022-11-21T22:53:28.497Z,99715.25
2022-11-21T22:55:31.125Z,99711.50
2022-11-21T22:57:34.756Z,99727.16
2022-11-21T22:59:37.383Z,99719.94
2022-11-21T23:01:40.121Z,99713.16
2022-11-21T23:03:44.087Z,99720.16
2022-11-21T23:05:46.954Z,99709.63
2022-11-21T23:07:49.679Z,99715.16
2022-11-21T23:09:52.603Z,99713.91
2022-11-21T23:11:55.220Z,99707.69
2022-11-21T23:13:58.452Z,99710.59
2022-11-21T23:16:01.866Z,99708.94
2022-11-21T23:18:04.776Z,99707.31
2022-11-21T23:20:08.029Z,99710.38
2022-11-21T23:22:11.471Z,99715.16
2022-11-21T23:24:14.287Z,99718.06
2022-11-21T23:26:17.541Z,99714.31
2022-11-21T23:28:20.485Z,99700.69
2022-11-21T23:30:23.086Z,99700.69
2022-11-21T23:32:25.710Z,99711.41
2022-11-21T23:34:28.307Z,99711.63
2022-11-21T23:36:30.956Z,99702.41
2022-11-21T23:38:33.595Z,99705.53
2022-11-21T23:40:36.760Z,99696.31
2022-11-21T23:42:39.428Z,99704.94
2022-11-21T23:44:43.290Z,99704.13
2022-11-21T23:46:45.913Z,99700.97
2022-11-21T23:48:48.616Z,99710.31
2022-11-21T23:50:51.545Z,99710.75
2022-11-21T23:52:54.281Z,99704.34
2022-11-21T23:54:57.245Z,99707.47
2022-11-21T23:56:59.855Z,99709.56
2022-11-21T23:59:02.482Z,99701.75
